Hlavní strana
METAR-TAF:

METAR-TAF

Letiště :

Čeboksary, Rusko

zeměpisná šířka: 56-05-24N, zeměpisná délka: 047-20-50E, výška: 171 m

Aktuální stav počasí

Zpráva byla vytvořena před 40 minutami, v 02:30 UTC
Jihozápadní vítr 8 kt
Teplota 2°C
Vlhkost vzduchu 100%
Tlak 1027 hPa
Viditelnost: 0600 m
mlha

METAR: UWKS 180230Z 23004MPS 0600 R24/0600N FG VV002 02/02 Q1027 R24/190060 NOSIG RMK QBB060 QFE756

Čas: 06:10 (03:10 UTC)

Předpověď počasí

Zpráva byla vytvořena před 1 hodinou a 18 minutami, v 01:52 UTC
Předpověď platná od 18 v 03 UTC do 18 v 12 UTC
Jihozápadní vítr 6 kt
Viditelnost: 0600 m
Zataženo ve výšce 200 ft
mlha
Dočasný
od 18 v 06 UTC do 18 v 12 UTC
Viditelnost: 1700 m
Zataženo ve výšce 400 ft
mrholení, kouřmo

TAF: UWKS 180152Z 1803/1812 23003MPS 0600 FG OVC002 TX03/1811Z TN02/1806Z TEMPO 1806/1812 1700 DZ BR OVC004

Stav a předpovědi počasí z více než 4 000 letišť (zprávy METAR a TAF).

Červené a žluté tečky na mapě představují dostupné meteorologické stanice.

Když kurzor umístíte na tečku, zobrazí se název stanice.

Pak kliknutím zobrazíte stav a předpověď počasí.

Chcete-li změnit mapu, kliknutím na zelené tlačítko se znaménkem +mapu přiblížíte, kliknutím na zelené tlačítko se znaménkem – mapu oddálíte a kliknutím na zelené šipky přejdete na sousední mapy.


METAR-TAF: